Time;durP1;ratioP1;P1;durP2;ratioP2;P2;SDS_P1;SDS_P2;PMS_P1;PMS_P2;Temp;Humidity;BMP_temperature;BMP_pressure;BME280_temperature;BME280_humidity;BME280_pressure;Samples;Min_cycle;Max_cycle;Signal;HPM_P1;HPM_P2
2022/05/27 00:02:11;;;;;;;;;;;;;;;21.54;29.25;98244.88;5038507;28;1072;-75
2022/05/27 00:04:36;;;;;;;;;;;;;;;21.38;29.53;98239.19;5038961;28;889;-75
2022/05/27 00:07:02;;;;;;;;;;;;;;;21.33;29.75;98235.63;5038382;28;975;-75
2022/05/27 00:09:28;;;;;;;;;;;;;;;21.26;29.30;98232.94;5037135;28;2075;-75
2022/05/27 00:11:53;;;;;;;;;;;;;;;21.22;29.56;98228.56;5038791;28;925;-75
2022/05/27 00:14:18;;;;;;;;;;;;;;;21.17;29.62;98229.09;5038239;28;1297;-75
2022/05/27 00:16:44;;;;;;;;;;;;;;;21.59;29.49;98244.34;5015889;28;1208;-75
2022/05/27 00:19:09;;;;;;;;;;;;;;;21.93;28.73;98229.03;5014715;28;2046;-75
2022/05/27 00:21:35;;;;;;;;;;;;;;;21.78;29.11;98235.00;5014702;28;971;-75
2022/05/27 00:24:00;;;;;;;;;;;;;;;21.49;29.12;98228.41;5016117;28;1221;-75
2022/05/27 00:26:26;;;;;;;;;;;;;;;21.31;29.39;98229.59;5015102;28;1122;-75
2022/05/27 00:28:51;;;;;;;;;;;;;;;21.39;29.50;98235.09;4996517;28;1593;-75
2022/05/27 00:31:20;;;;;;;;;;;;;;;21.20;29.57;98234.69;4993996;28;2128;-75
2022/05/27 00:33:45;;;;;;;;;;;;;;;21.16;29.66;98238.81;4996100;28;1150;-75
2022/05/27 00:36:11;;;;;;;;;;;;;;;21.63;29.10;98239.41;4976403;28;1077;-75
2022/05/27 00:38:37;;;;;;;;;;;;;;;21.90;28.76;98232.72;4974322;28;2121;-75
2022/05/27 00:41:02;;;;;;;;;;;;;;;21.52;29.09;98239.66;4976872;28;948;-75
2022/05/27 00:43:28;;;;;;;;;;;;;;;21.40;29.34;98231.03;4976846;28;1198;-75
2022/05/27 00:46:01;;;;;;;;;;;;;;;21.35;29.75;98228.72;4976519;28;1135;-75
2022/05/27 00:48:26;;;;;;;;;;;;;;;21.23;29.88;98233.78;4971100;28;1979;-75
2022/05/27 00:50:52;;;;;;;;;;;;;;;21.33;29.66;98232.78;4973059;28;982;-75
2022/05/27 00:53:33;;;;;;;;;;;;;;;21.24;29.58;98224.09;4957146;29;1008;-75
2022/05/27 00:55:59;;;;;;;;;;;;;;;21.26;29.60;98230.09;4973139;28;994;-75
2022/05/27 00:58:31;;;;;;;;;;;;;;;21.62;29.53;98225.72;4953091;29;2084;-75
2022/05/27 01:00:56;;;;;;;;;;;;;;;21.79;28.85;98230.94;4972455;28;2102;-75
2022/05/27 01:03:22;;;;;;;;;;;;;;;21.92;28.69;98230.25;4973645;28;2177;-75
2022/05/27 01:05:47;;;;;;;;;;;;;;;21.63;28.90;98222.44;4956523;29;1002;-75
2022/05/27 01:08:13;;;;;;;;;;;;;;;21.43;29.31;98230.16;4945763;29;2094;-75
2022/05/27 01:10:59;;;;;;;;;;;;;;;21.24;29.42;98223.25;4940982;29;977;-75
2022/05/27 01:13:28;;;;;;;;;;;;;;;21.25;29.41;98224.88;4956471;29;1161;-75
2022/05/27 01:15:56;;;;;;;;;;;;;;;21.29;29.23;98232.03;4940674;29;1028;-75
2022/05/27 01:18:22;;;;;;;;;;;;;;;21.24;29.53;98238.22;4954161;29;2095;-75
2022/05/27 01:20:56;;;;;;;;;;;;;;;21.06;29.80;98237.81;4956802;29;965;-75
2022/05/27 01:23:21;;;;;;;;;;;;;;;21.24;30.00;98246.72;4956474;29;999;-76
2022/05/27 01:25:53;;;;;;;;;;;;;;;21.16;29.86;98239.59;4947815;29;958;-75
2022/05/27 01:28:38;;;;;;;;;;;;;;;21.46;29.88;98232.94;4935513;29;2154;-75
2022/05/27 01:31:04;;;;;;;;;;;;;;;21.88;28.70;98238.03;4945040;28;960;-75
2022/05/27 01:33:38;;;;;;;;;;;;;;;21.75;28.85;98241.56;4995063;28;1012;-75
2022/05/27 01:36:22;;;;;;;;;;;;;;;21.48;29.43;98238.94;4952101;28;938;-75
2022/05/27 01:39:02;;;;;;;;;;;;;;;21.23;29.75;98239.44;4934874;29;2179;-75
2022/05/27 01:41:42;;;;;;;;;;;;;;;21.13;30.05;98240.47;4952805;29;1255;-75
2022/05/27 01:44:11;;;;;;;;;;;;;;;21.10;29.84;98240.56;4952641;29;1012;-76
2022/05/27 01:46:46;;;;;;;;;;;;;;;21.07;30.22;98243.00;4956137;29;960;-75
2022/05/27 01:49:14;;;;;;;;;;;;;;;21.04;29.96;98245.94;4954018;29;2335;-75
2022/05/27 01:51:40;;;;;;;;;;;;;;;21.24;29.92;98235.41;4955889;29;990;-75
2022/05/27 01:54:06;;;;;;;;;;;;;;;21.62;29.51;98237.81;4962715;28;1032;-75
2022/05/27 01:56:39;;;;;;;;;;;;;;;21.88;28.81;98233.16;5014109;28;993;-75
2022/05/27 01:59:16;;;;;;;;;;;;;;;21.61;29.11;98233.41;4996205;28;2181;-75
2022/05/27 02:01:43;;;;;;;;;;;;;;;21.38;29.37;98244.84;4998062;28;939;-75
2022/05/27 02:04:11;;;;;;;;;;;;;;;21.28;29.52;98240.97;4997948;28;984;-75
2022/05/27 02:06:43;;;;;;;;;;;;;;;21.27;29.31;98240.19;5010200;28;1017;-76
2022/05/27 02:09:14;;;;;;;;;;;;;;;21.31;29.31;98240.94;5034977;28;1855;-75
2022/05/27 02:11:41;;;;;;;;;;;;;;;21.31;29.35;98231.66;5036988;28;1081;-75
2022/05/27 02:14:08;;;;;;;;;;;;;;;21.41;29.66;98241.16;5037265;28;1013;-75
2022/05/27 02:16:45;;;;;;;;;;;;;;;21.72;28.90;98241.66;5032088;28;988;-75
2022/05/27 02:19:15;;;;;;;;;;;;;;;22.02;28.49;98247.00;4995437;28;2188;-75
2022/05/27 02:21:41;;;;;;;;;;;;;;;21.67;28.72;98242.97;4997753;28;935;-75
2022/05/27 02:24:08;;;;;;;;;;;;;;;21.53;29.17;98237.63;4997603;28;983;-75
2022/05/27 02:26:36;;;;;;;;;;;;;;;21.32;29.42;98234.03;5011888;28;2343;-75
2022/05/27 02:29:02;;;;;;;;;;;;;;;21.29;29.34;98232.03;5013768;28;1214;-75
2022/05/27 02:31:31;;;;;;;;;;;;;;;21.14;29.78;98247.75;4997751;28;1003;-75
2022/05/27 02:37:05;;;;;;;;;;;;;;;21.23;29.67;98235.81;4957157;28;2074;-75
2022/05/27 02:39:31;;;;;;;;;;;;;;;21.19;29.96;98247.25;4957999;28;1915;-75
2022/05/27 02:41:59;;;;;;;;;;;;;;;21.20;29.83;98256.53;4974443;28;1196;-75
2022/05/27 02:44:28;;;;;;;;;;;;;;;21.04;30.33;98248.75;4958197;28;2172;-75
2022/05/27 02:47:04;;;;;;;;;;;;;;;21.16;29.86;98250.94;4958559;28;981;-75
2022/05/27 02:49:32;;;;;;;;;;;;;;;21.31;30.08;98249.41;4954909;28;975;-75
2022/05/27 02:51:57;;;;;;;;;;;;;;;21.64;29.33;98246.66;4955377;29;998;-76
2022/05/27 02:54:23;;;;;;;;;;;;;;;21.91;28.83;98242.81;4954838;28;2171;-75
2022/05/27 02:57:07;;;;;;;;;;;;;;;21.39;29.51;98240.75;4955178;29;992;-75
2022/05/27 02:59:33;;;;;;;;;;;;;;;21.30;29.83;98245.00;4955002;29;1902;-75
2022/05/27 03:02:08;;;;;;;;;;;;;;;21.20;29.75;98243.16;4955674;29;952;-75
2022/05/27 03:04:34;;;;;;;;;;;;;;;21.10;29.88;98252.69;4977747;28;2166;-75
2022/05/27 03:06:59;;;;;;;;;;;;;;;21.37;29.58;98248.91;5013774;28;919;-74
2022/05/27 03:09:50;;;;;;;;;;;;;;;21.29;29.54;98259.53;5013590;28;1010;-75
2022/05/27 03:12:19;;;;;;;;;;;;;;;21.26;29.78;98255.56;4974215;28;1045;-75
2022/05/27 03:15:10;;;;;;;;;;;;;;;21.14;30.00;98263.91;4959531;28;1996;-75
2022/05/27 03:17:42;;;;;;;;;;;;;;;21.15;30.05;98265.53;4916414;29;1986;-75
2022/05/27 03:20:09;;;;;;;;;;;;;;;21.43;29.97;98262.09;4910003;29;973;-75
2022/05/27 03:22:44;;;;;;;;;;;;;;;21.84;29.46;98263.63;4882336;29;1116;-75
2022/05/27 03:25:12;;;;;;;;;;;;;;;21.56;29.71;98260.22;4897437;29;2064;-75
2022/05/27 03:27:46;;;;;;;;;;;;;;;21.29;30.01;98257.50;4897632;29;1084;-75
2022/05/27 03:30:16;;;;;;;;;;;;;;;21.40;29.95;98259.34;4897672;29;1011;-75
2022/05/27 03:32:58;;;;;;;;;;;;;;;21.07;30.40;98242.22;4897640;29;1143;-75
2022/05/27 03:35:23;;;;;;;;;;;;;;;21.24;30.00;98269.38;4896922;29;2167;-75
2022/05/27 03:37:55;;;;;;;;;;;;;;;21.09;30.19;98268.06;4897456;29;1910;-75
2022/05/27 03:40:24;;;;;;;;;;;;;;;21.21;30.36;98273.06;4897723;29;1019;-74
2022/05/27 03:42:50;;;;;;;;;;;;;;;21.27;30.07;98276.97;4878859;29;1026;-75
2022/05/27 03:45:17;;;;;;;;;;;;;;;21.12;30.51;98272.84;4878412;29;2120;-75
2022/05/27 03:47:42;;;;;;;;;;;;;;;21.29;29.91;98271.66;4879088;29;1063;-75
2022/05/27 03:50:09;;;;;;;;;;;;;;;21.13;30.33;98273.63;4860372;29;1151;-75
2022/05/27 03:52:39;;;;;;;;;;;;;;;21.30;30.19;98278.97;4860765;29;971;-75
2022/05/27 03:55:05;;;;;;;;;;;;;;;21.72;29.63;98270.78;4865781;29;2277;-75
2022/05/27 03:57:31;;;;;;;;;;;;;;;21.85;29.22;98277.31;4888207;29;1899;-75
2022/05/27 03:59:56;;;;;;;;;;;;;;;21.55;29.67;98277.63;4898304;29;1029;-75
2022/05/27 04:02:21;;;;;;;;;;;;;;;21.43;29.96;98286.78;4938234;29;1070;-75
2022/05/27 04:04:47;;;;;;;;;;;;;;;21.37;29.96;98282.88;4938830;29;1171;-75
2022/05/27 04:07:12;;;;;;;;;;;;;;;21.32;29.89;98282.16;4939360;29;953;-75
2022/05/27 04:09:38;;;;;;;;;;;;;;;21.16;30.45;98284.09;4938839;29;949;-75
2022/05/27 04:12:03;;;;;;;;;;;;;;;21.26;30.35;98280.25;4938219;29;1140;-75
2022/05/27 04:14:31;;;;;;;;;;;;;;;21.16;30.36;98287.72;4923126;29;1458;-75
2022/05/27 04:17:27;;;;;;;;;;;;;;;21.16;30.45;98273.56;4919532;29;1367;-75
2022/05/27 04:19:42;;;;;;;;;;;;;;;21.27;30.05;98279.00;4918684;29;2278;-75
2022/05/27 04:22:07;;;;;;;;;;;;;;;21.33;30.21;98283.72;4954182;29;1341;-76
2022/05/27 04:24:33;;;;;;;;;;;;;;;21.78;29.78;98288.03;4957463;29;1327;-75
2022/05/27 04:26:59;;;;;;;;;;;;;;;21.91;29.57;98299.47;4974001;28;1276;-75
2022/05/27 04:29:24;;;;;;;;;;;;;;;21.69;29.38;98288.63;4976727;28;1458;-75
2022/05/27 04:31:50;;;;;;;;;;;;;;;21.53;30.00;98285.75;4976534;28;1221;-75
2022/05/27 04:34:15;;;;;;;;;;;;;;;21.53;30.04;98294.25;4976406;28;1319;-75
2022/05/27 04:36:40;;;;;;;;;;;;;;;21.40;29.89;98299.78;4976313;28;1343;-75
2022/05/27 04:39:06;;;;;;;;;;;;;;;21.30;29.91;98303.66;4976103;28;1979;-75
2022/05/27 04:41:31;;;;;;;;;;;;;;;21.35;30.03;98307.97;4979390;28;1399;-75
2022/05/27 04:43:58;;;;;;;;;;;;;;;21.30;30.26;98307.28;4995632;28;1338;-75
2022/05/27 04:46:24;;;;;;;;;;;;;;;21.29;30.18;98304.81;4995811;28;1303;-75
2022/05/27 04:48:49;;;;;;;;;;;;;;;21.25;30.51;98302.09;5015123;28;1678;-75
2022/05/27 04:51:15;;;;;;;;;;;;;;;21.16;30.45;98307.53;5018273;28;1211;-75
2022/05/27 04:53:40;;;;;;;;;;;;;;;21.11;30.50;98308.03;5017414;28;1255;-75
2022/05/27 04:56:07;;;;;;;;;;;;;;;21.12;30.74;98306.78;5017267;28;1226;-75
2022/05/27 04:58:32;;;;;;;;;;;;;;;21.16;30.27;98301.06;5017332;28;2011;-75
2022/05/27 05:00:59;;;;;;;;;;;;;;;21.41;30.35;98309.09;5017491;28;1265;-75
2022/05/27 05:03:24;;;;;;;;;;;;;;;21.72;30.18;98316.09;5017633;28;1368;-75
2022/05/27 05:05:50;;;;;;;;;;;;;;;21.96;29.48;98307.44;5015019;28;1180;-75
2022/05/27 05:08:22;;;;;;;;;;;;;;;21.49;30.04;98313.34;5017027;28;1342;-74
2022/05/27 05:10:47;;;;;;;;;;;;;;;21.31;30.35;98306.03;5017492;28;1249;-75
2022/05/27 05:13:13;;;;;;;;;;;;;;;21.35;30.42;98310.81;5017704;28;974;-75
2022/05/27 05:15:38;;;;;;;;;;;;;;;21.27;30.45;98313.75;5017614;28;1009;-75
2022/05/27 05:18:04;;;;;;;;;;;;;;;21.27;30.17;98312.97;5017779;28;1906;-75
2022/05/27 05:20:30;;;;;;;;;;;;;;;21.20;30.42;98313.91;5017536;28;1030;-75
2022/05/27 05:22:55;;;;;;;;;;;;;;;21.06;30.63;98311.34;4975559;28;1091;-75
2022/05/27 05:25:23;;;;;;;;;;;;;;;21.19;30.56;98306.66;4937027;29;938;-75
2022/05/27 05:27:48;;;;;;;;;;;;;;;21.20;30.66;98305.44;4937143;29;1110;-75
2022/05/27 05:30:14;;;;;;;;;;;;;;;21.29;30.11;98304.81;4936911;29;1174;-75
2022/05/27 05:32:40;;;;;;;;;;;;;;;21.26;30.25;98306.50;4937474;29;1116;-75
2022/05/27 05:35:05;;;;;;;;;;;;;;;21.21;30.42;98307.00;4937101;29;952;-76
2022/05/27 05:37:31;;;;;;;;;;;;;;;21.26;30.23;98306.50;4936965;29;1895;-75
2022/05/27 05:39:56;;;;;;;;;;;;;;;21.17;30.52;98303.44;4937207;29;1063;-76
2022/05/27 05:42:22;;;;;;;;;;;;;;;21.27;31.03;98302.44;4937141;29;1245;-75
2022/05/27 05:44:47;;;;;;;;;;;;;;;21.74;30.69;98299.44;4936574;29;1240;-76
2022/05/27 05:47:13;;;;;;;;;;;;;;;21.88;30.19;98300.38;4936861;29;1003;-75
2022/05/27 05:49:38;;;;;;;;;;;;;;;21.60;30.36;98291.25;4937116;29;971;-75
2022/05/27 05:52:04;;;;;;;;;;;;;;;21.42;30.62;98302.19;4936873;29;1011;-76
2022/05/27 05:54:29;;;;;;;;;;;;;;;21.43;30.81;98309.44;4951015;29;1032;-75
2022/05/27 05:56:55;;;;;;;;;;;;;;;21.39;30.73;98305.88;4950862;29;1042;-75
2022/05/27 05:59:22;;;;;;;;;;;;;;;21.25;30.84;98302.09;4955751;29;2006;-76
2022/05/27 06:01:48;;;;;;;;;;;;;;;21.36;30.76;98303.94;4956118;29;1121;-76
2022/05/27 06:04:13;;;;;;;;;;;;;;;21.26;31.10;98302.88;4956035;29;938;-75
2022/05/27 06:06:39;;;;;;;;;;;;;;;21.16;31.22;98290.53;4956069;29;1079;-73
2022/05/27 06:09:05;;;;;;;;;;;;;;;21.21;30.88;98300.56;4955735;29;988;-73
2022/05/27 06:11:30;;;;;;;;;;;;;;;21.10;30.95;98297.94;4955918;29;986;-75
2022/05/27 06:13:55;;;;;;;;;;;;;;;21.31;30.65;98294.72;4955990;29;944;-75
2022/05/27 06:16:21;;;;;;;;;;;;;;;21.02;31.17;98288.00;4955944;29;1024;-75
2022/05/27 06:18:47;;;;;;;;;;;;;;;21.20;30.73;98287.66;4955596;29;1910;-76
2022/05/27 06:21:13;;;;;;;;;;;;;;;21.15;31.06;98291.78;4955501;29;922;-75
2022/05/27 06:23:38;;;;;;;;;;;;;;;21.51;30.94;98288.25;4954987;28;961;-76
2022/05/27 06:26:04;;;;;;;;;;;;;;;21.85;30.38;98280.16;4955854;29;1037;-75
2022/05/27 06:36:42;;;;;;;;;;;;;;;21.36;31.07;98286.94;4996530;28;1015;-75
2022/05/27 06:39:08;;;;;;;;;;;;;;;21.33;31.12;98280.91;4996445;28;1981;-75
2022/05/27 06:41:33;;;;;;;;;;;;;;;21.42;31.06;98288.03;5003014;28;1290;-75
2022/05/27 06:43:59;;;;;;;;;;;;;;;21.32;31.08;98282.16;5035841;28;907;-75
2022/05/27 06:46:24;;;;;;;;;;;;;;;21.37;31.23;98282.88;5035813;28;972;-75
2022/05/27 06:48:50;;;;;;;;;;;;;;;21.27;31.11;98285.47;5035754;28;938;-75
2022/05/27 06:51:15;;;;;;;;;;;;;;;21.20;31.34;98284.81;5035683;28;1070;-75
2022/05/27 06:53:40;;;;;;;;;;;;;;;21.24;31.23;98269.38;5035921;28;1004;-75
2022/05/27 06:56:07;;;;;;;;;;;;;;;21.38;30.82;98284.47;5035688;28;1068;-75
2022/05/27 06:58:32;;;;;;;;;;;;;;;21.32;30.86;98276.50;5035437;28;1906;-75
2022/05/27 07:00:58;;;;;;;;;;;;;;;21.35;30.78;98279.66;5000511;28;1174;-75
2022/05/27 07:03:23;;;;;;;;;;;;;;;21.27;31.07;98279.78;5035707;28;917;-75
2022/05/27 07:05:49;;;;;;;;;;;;;;;21.20;31.39;98274.28;5000548;28;942;-75
2022/05/27 07:08:14;;;;;;;;;;;;;;;21.18;31.15;98273.13;5035477;28;1013;-75
2022/05/27 07:10:40;;;;;;;;;;;;;;;21.24;31.13;98274.19;5035699;28;884;-75
2022/05/27 07:13:05;;;;;;;;;;;;;;;21.25;31.04;98273.78;5035208;28;960;-75
2022/05/27 07:15:31;;;;;;;;;;;;;;;21.25;31.04;98278.66;5035909;28;999;-75
2022/05/27 07:17:56;;;;;;;;;;;;;;;21.21;31.09;98281.53;5035134;28;1902;-75
2022/05/27 07:20:23;;;;;;;;;;;;;;;21.35;30.87;98269.16;5035579;28;978;-75
2022/05/27 07:22:48;;;;;;;;;;;;;;;21.65;31.09;98276.56;5035436;28;957;-75
2022/05/27 07:25:14;;;;;;;;;;;;;;;21.52;31.39;98233.19;5035218;28;1177;-75
2022/05/27 07:27:40;;;;;;;;;;;;;;;21.83;31.22;98276.97;5035343;28;1122;-75
2022/05/27 07:30:06;;;;;;;;;;;;;;;21.60;31.03;98279.94;5035472;28;899;-76
2022/05/27 07:32:35;;;;;;;;;;;;;;;21.33;31.41;98277.28;5034924;28;1024;-75
2022/05/27 07:35:01;;;;;;;;;;;;;;;21.51;31.02;98271.25;4995932;28;1025;-75
2022/05/27 07:37:26;;;;;;;;;;;;;;;21.57;30.84;98270.28;4997434;28;1025;-75
2022/05/27 07:39:52;;;;;;;;;;;;;;;21.30;31.29;98284.63;4996937;28;1973;-75
2022/05/27 07:42:17;;;;;;;;;;;;;;;21.41;31.38;98277.94;4997063;28;1127;-75
2022/05/27 07:44:42;;;;;;;;;;;;;;;21.24;31.52;98292.00;4997331;28;963;-76
2022/05/27 07:47:08;;;;;;;;;;;;;;;21.29;31.36;98276.53;4996828;28;1088;-75
2022/05/27 07:49:33;;;;;;;;;;;;;;;21.28;31.49;98275.72;4997531;28;1301;-76
2022/05/27 07:51:59;;;;;;;;;;;;;;;21.30;31.43;98276.13;4996789;28;1056;-76
2022/05/27 07:54:25;;;;;;;;;;;;;;;21.27;31.37;98279.78;4996845;28;1183;-75
2022/05/27 07:56:50;;;;;;;;;;;;;;;21.25;31.35;98273.78;4993985;28;1121;-75
2022/05/27 07:59:15;;;;;;;;;;;;;;;21.27;31.08;98282.63;4996145;28;1911;-76
2022/05/27 08:01:41;;;;;;;;;;;;;;;21.30;30.96;98281.78;4996382;28;1216;-76
2022/05/27 08:04:07;;;;;;;;;;;;;;;21.32;31.23;98287.00;4996399;28;1135;-75
2022/05/27 08:06:32;;;;;;;;;;;;;;;21.26;31.20;98289.53;5026664;28;1242;-75
2022/05/27 08:08:58;;;;;;;;;;;;;;;21.30;31.09;98284.63;5038090;28;1206;-76
2022/05/27 08:11:24;;;;;;;;;;;;;;;21.23;30.99;98290.38;5038308;28;1244;-76
2022/05/27 08:13:49;;;;;;;;;;;;;;;21.26;31.01;98286.69;5037911;28;1218;-76
2022/05/27 08:16:15;;;;;;;;;;;;;;;21.51;30.86;98285.41;5038017;28;1298;-76
2022/05/27 08:18:41;;;;;;;;;;;;;;;21.45;30.54;98289.97;5037811;28;1914;-76
2022/05/27 08:21:06;;;;;;;;;;;;;;;21.27;30.97;98285.47;5037831;28;1396;-75
2022/05/27 08:23:32;;;;;;;;;;;;;;;21.25;30.87;98284.31;5038062;28;1301;-75
2022/05/27 08:25:58;;;;;;;;;;;;;;;21.25;31.23;98287.13;5038328;28;1186;-75
2022/05/27 08:28:27;;;;;;;;;;;;;;;21.18;31.11;98282.41;5035437;28;1111;-76
2022/05/27 08:30:55;;;;;;;;;;;;;;;21.40;30.99;98287.66;5037712;28;1234;-76
2022/05/27 08:33:21;;;;;;;;;;;;;;;21.41;30.96;98286.44;5037623;28;1178;-75
2022/05/27 08:38:32;;;;;;;;;;;;;;;21.43;30.67;98276.25;5035554;28;1890;-76
2022/05/27 08:41:00;;;;;;;;;;;;;;;21.43;30.70;98286.78;5036295;28;1289;-75
2022/05/27 08:43:26;;;;;;;;;;;;;;;21.31;30.73;98276.94;5038136;28;1203;-75
2022/05/27 08:45:51;;;;;;;;;;;;;;;21.28;30.73;98275.72;5036866;28;1273;-75
2022/05/27 08:48:17;;;;;;;;;;;;;;;21.22;30.95;98274.66;5037331;28;1201;-75
2022/05/27 08:50:44;;;;;;;;;;;;;;;21.21;30.96;98281.53;5037265;28;1139;-76
2022/05/27 08:53:25;;;;;;;;;;;;;;;20.86;30.74;98205.88;5052974;28;1413;-75
2022/05/27 09:01:28;;;;;;;;;;;;;;;21.25;30.94;98273.00;5036257;28;1171;-75
2022/05/27 09:04:12;;;;;;;;;;;;;;;21.28;30.81;98275.72;5037345;28;925;-75
2022/05/27 09:06:43;;;;;;;;;;;;;;;21.39;30.78;98264.22;5037835;28;941;-76
2022/05/27 09:09:11;;;;;;;;;;;;;;;21.24;30.90;98272.19;5036313;28;984;-75
2022/05/27 09:11:55;;;;;;;;;;;;;;;21.57;31.26;98264.63;4995793;28;915;-76
2022/05/27 09:14:21;;;;;;;;;;;;;;;21.74;31.91;98259.78;4995668;28;973;-75
2022/05/27 09:17:17;;;;;;;;;;;;;;;21.73;32.22;98263.06;4956356;28;1140;-76
2022/05/27 09:19:55;;;;;;;;;;;;;;;21.67;31.99;98262.78;4899173;29;1985;-76
2022/05/27 09:22:32;;;;;;;;;;;;;;;21.41;32.28;98255.28;4899610;29;1281;-75
2022/05/27 09:25:16;;;;;;;;;;;;;;;21.38;32.36;98251.28;4899372;29;1348;-75
2022/05/27 09:27:55;;;;;;;;;;;;;;;21.47;32.17;98250.72;4898979;29;1119;-75
2022/05/27 09:30:20;;;;;;;;;;;;;;;21.44;31.97;98251.56;4883570;29;1213;-75
2022/05/27 09:32:47;;;;;;;;;;;;;;;21.36;32.10;98247.31;4899105;29;1190;-75
2022/05/27 09:35:20;;;;;;;;;;;;;;;21.55;31.37;98249.28;4883666;29;1174;-76
2022/05/27 09:37:46;;;;;;;;;;;;;;;21.49;31.45;98246.19;4898499;29;1910;-76
2022/05/27 09:40:12;;;;;;;;;;;;;;;21.38;31.89;98237.13;4861614;29;1322;-76
2022/05/27 09:42:48;;;;;;;;;;;;;;;21.45;31.41;98244.66;4870628;29;1286;-76
2022/05/27 09:45:14;;;;;;;;;;;;;;;21.44;31.58;98238.22;4879875;29;1424;-76
2022/05/27 09:47:40;;;;;;;;;;;;;;;21.36;31.69;98245.28;4888276;29;1235;-76
2022/05/27 09:50:14;;;;;;;;;;;;;;;21.29;31.55;98243.34;4898484;29;1238;-76
2022/05/27 09:52:39;;;;;;;;;;;;;;;21.55;31.30;98240.81;4896569;29;1248;-76
2022/05/27 09:55:16;;;;;;;;;;;;;;;21.39;31.44;98235.09;4903140;29;1190;-76
2022/05/27 09:58:01;;;;;;;;;;;;;;;21.39;31.33;98237.94;4914790;29;1914;-75
2022/05/27 10:00:56;;;;;;;;;;;;;;;21.25;31.99;98230.53;4915995;29;1329;-75
2022/05/27 10:03:23;;;;;;;;;;;;;;;21.35;31.83;98234.38;4853929;29;1223;-76
2022/05/27 10:05:50;;;;;;;;;;;;;;;21.41;31.52;98232.66;4824418;29;1492;-75
2022/05/27 10:08:24;;;;;;;;;;;;;;;21.35;31.65;98218.22;4821835;29;1232;-76
2022/05/27 10:10:50;;;;;;;;;;;;;;;21.30;31.49;98228.03;4808883;29;1314;-76
2022/05/27 10:13:30;;;;;;;;;;;;;;;21.51;31.17;98220.28;4806081;29;1259;-76
2022/05/27 10:16:08;;;;;;;;;;;;;;;21.36;31.31;98219.00;4804063;29;2002;-76
2022/05/27 10:18:33;;;;;;;;;;;;;;;21.35;31.49;98221.06;4805802;29;1996;-76
2022/05/27 10:21:01;;;;;;;;;;;;;;;21.35;31.40;98220.22;4791025;29;1284;-75
2022/05/27 10:23:30;;;;;;;;;;;;;;;21.45;31.23;98219.19;4805961;29;1718;-75
2022/05/27 10:25:56;;;;;;;;;;;;;;;21.32;31.39;98222.72;4813934;29;1239;-76
2022/05/27 10:28:23;;;;;;;;;;;;;;;21.38;31.42;98216.53;4824467;29;1220;-76
2022/05/27 10:30:53;;;;;;;;;;;;;;;21.28;31.21;98224.78;4824617;29;1135;-75
2022/05/27 10:33:19;;;;;;;;;;;;;;;21.37;31.27;98220.59;4824327;29;1008;-75
2022/05/27 10:35:46;;;;;;;;;;;;;;;21.49;30.83;98211.41;4827720;29;1043;-76
2022/05/27 10:38:37;;;;;;;;;;;;;;;21.59;30.60;98216.03;4879917;29;1911;-76
2022/05/27 10:41:15;;;;;;;;;;;;;;;21.32;31.00;98208.56;4919729;29;1803;-75
2022/05/27 10:44:07;;;;;;;;;;;;;;;21.31;31.19;98204.13;4946326;28;997;-75
2022/05/27 10:46:33;;;;;;;;;;;;;;;21.45;30.96;98196.53;5007851;28;993;-76
2022/05/27 10:49:17;;;;;;;;;;;;;;;21.45;30.88;98205.03;5013415;28;964;-76
2022/05/27 10:51:42;;;;;;;;;;;;;;;21.38;30.82;98208.84;5013817;28;957;-75
2022/05/27 10:54:08;;;;;;;;;;;;;;;21.25;31.19;98197.38;5013650;28;1026;-76
2022/05/27 10:56:39;;;;;;;;;;;;;;;21.31;31.00;98195.66;5013446;28;1027;-76
2022/05/27 11:02:07;;;;;;;;;;;;;;;21.31;31.17;98192.81;5013766;28;1139;-76
2022/05/27 11:04:32;;;;;;;;;;;;;;;21.27;30.96;98192.06;5013261;28;995;-76
2022/05/27 11:07:01;;;;;;;;;;;;;;;21.26;31.18;98190.47;5013606;28;1114;-76
2022/05/27 11:09:26;;;;;;;;;;;;;;;21.21;31.12;98185.34;5015337;28;919;-76
2022/05/27 11:11:51;;;;;;;;;;;;;;;21.25;31.06;98190.91;5017678;28;995;-76
2022/05/27 11:17:28;;;;;;;;;;;;;;;21.34;30.86;98179.81;5017091;28;1032;-76
2022/05/27 11:19:56;;;;;;;;;;;;;;;21.35;30.63;98177.78;4991955;28;1931;-75
2022/05/27 11:22:37;;;;;;;;;;;;;;;21.24;30.94;98175.16;4997846;28;1049;-75
2022/05/27 11:25:32;;;;;;;;;;;;;;;21.27;30.76;98175.09;4993839;28;962;-75
2022/05/27 11:28:12;;;;;;;;;;;;;;;21.39;30.63;98167.16;4958953;29;1042;-75
2022/05/27 11:30:56;;;;;;;;;;;;;;;21.25;30.72;98163.41;4958664;29;1001;-76
2022/05/27 11:33:48;;;;;;;;;;;;;;;21.36;30.70;98168.84;4958595;29;1002;-76
2022/05/27 11:36:32;;;;;;;;;;;;;;;21.32;30.69;98168.94;4882846;29;1021;-76
2022/05/27 11:39:12;;;;;;;;;;;;;;;21.43;30.60;98162.22;4882513;29;1986;-75
2022/05/27 11:41:43;;;;;;;;;;;;;;;21.36;30.76;98163.19;4882842;29;1254;-76
2022/05/27 11:44:27;;;;;;;;;;;;;;;21.29;30.77;98152.78;4882714;29;1001;-76
2022/05/27 11:47:16;;;;;;;;;;;;;;;21.36;30.84;98153.91;4883966;29;954;-76
2022/05/27 11:49:46;;;;;;;;;;;;;;;21.29;30.72;98152.00;4882339;29;1056;-76
2022/05/27 11:52:11;;;;;;;;;;;;;;;21.31;30.59;98150.38;4848289;29;1004;-76
2022/05/27 11:54:39;;;;;;;;;;;;;;;21.24;30.94;98144.84;4863856;29;1036;-75
2022/05/27 11:57:07;;;;;;;;;;;;;;;21.31;30.76;98144.69;4863810;29;1144;-76
2022/05/27 11:59:35;;;;;;;;;;;;;;;21.32;30.74;98146.28;4864069;29;1910;-75
2022/05/27 12:02:03;;;;;;;;;;;;;;;21.38;30.85;98131.63;4863797;29;1224;-76
2022/05/27 12:04:47;;;;;;;;;;;;;;;21.56;30.44;98129.16;4890121;29;1068;-76
2022/05/27 12:07:24;;;;;;;;;;;;;;;21.29;30.68;98124.50;4900513;29;1034;-75
2022/05/27 12:09:50;;;;;;;;;;;;;;;21.29;30.67;98124.50;4881948;29;1230;-76
2022/05/27 12:12:25;;;;;;;;;;;;;;;21.25;30.67;98120.16;4900633;29;982;-76
2022/05/27 12:14:53;;;;;;;;;;;;;;;21.31;30.60;98110.75;4881589;29;2173;-75
2022/05/27 12:17:20;;;;;;;;;;;;;;;21.32;30.59;98118.00;4844886;29;1831;-76
2022/05/27 12:19:52;;;;;;;;;;;;;;;21.43;30.53;98112.06;4808276;29;1977;-75
2022/05/27 12:22:19;;;;;;;;;;;;;;;21.30;30.56;98105.53;4792337;29;980;-75
2022/05/27 12:24:47;;;;;;;;;;;;;;;21.25;30.79;98106.81;4793302;29;1196;-76
2022/05/27 12:27:14;;;;;;;;;;;;;;;21.21;30.97;98089.13;4793366;29;1036;-75
2022/05/27 12:29:39;;;;;;;;;;;;;;;21.31;30.72;98096.59;4799131;29;970;-76
2022/05/27 12:32:07;;;;;;;;;;;;;;;21.32;30.58;98100.22;4775079;29;1000;-75
2022/05/27 12:34:37;;;;;;;;;;;;;;;21.21;30.72;98100.44;4787738;29;1168;-76
2022/05/27 12:37:15;;;;;;;;;;;;;;;21.26;30.66;98097.09;4772369;30;1119;-76
2022/05/27 12:39:41;;;;;;;;;;;;;;;21.29;30.68;98090.53;4772172;30;1998;-73
2022/05/27 12:42:10;;;;;;;;;;;;;;;21.32;30.68;98088.88;4781799;30;1181;-72
2022/05/27 12:44:36;;;;;;;;;;;;;;;21.47;31.38;98084.47;4783658;29;1280;-73
2022/05/27 12:47:01;;;;;;;;;;;;;;;21.72;31.99;98072.53;4831473;29;1000;-73
2022/05/27 12:49:31;;;;;;;;;;;;;;;21.82;32.02;98077.13;4898655;29;979;-72
2022/05/27 12:51:57;;;;;;;;;;;;;;;21.93;32.12;98081.69;4937514;29;1024;-73
2022/05/27 12:54:48;;;;;;;;;;;;;;;21.75;32.18;98082.94;4937987;29;992;-73
2022/05/27 13:03:06;;;;;;;;;;;;;;;21.33;32.63;98077.13;4899892;29;1025;-73
2022/05/27 13:05:51;;;;;;;;;;;;;;;21.33;32.29;98077.13;4909308;29;1033;-72
2022/05/27 13:08:20;;;;;;;;;;;;;;;21.46;31.91;98082.88;4919106;29;1029;-72
2022/05/27 13:10:47;;;;;;;;;;;;;;;21.48;31.73;98069.06;4919085;29;1110;-72
2022/05/27 13:13:13;;;;;;;;;;;;;;;21.45;31.96;98066.31;4918833;29;1100;-73
2022/05/27 13:15:57;;;;;;;;;;;;;;;21.40;31.61;98069.69;4928781;29;998;-73
2022/05/27 13:18:26;;;;;;;;;;;;;;;21.39;31.65;98066.06;4937436;29;1906;-73
2022/05/27 13:20:51;;;;;;;;;;;;;;;21.30;31.81;98063.06;4937456;29;1037;-72
2022/05/27 13:23:17;;;;;;;;;;;;;;;21.27;31.76;98059.06;4937605;29;1062;-73
2022/05/27 13:25:43;;;;;;;;;;;;;;;21.12;31.98;98054.97;4921645;29;1037;-73
2022/05/27 13:28:09;;;;;;;;;;;;;;;21.35;31.58;98058.91;4921824;29;970;-73
2022/05/27 13:30:49;;;;;;;;;;;;;;;21.25;31.90;98055.88;4921520;29;985;-73
2022/05/27 13:33:16;;;;;;;;;;;;;;;21.28;31.56;98054.97;4940688;29;975;-73
2022/05/27 13:35:44;;;;;;;;;;;;;;;21.31;31.51;98045.66;4956306;29;951;-73
2022/05/27 13:38:10;;;;;;;;;;;;;;;21.30;31.76;98052.56;5031089;28;1985;-73
2022/05/27 13:40:36;;;;;;;;;;;;;;;21.43;31.32;98044.13;5017868;28;941;-73
2022/05/27 13:43:06;;;;;;;;;;;;;;;21.39;31.24;98053.94;4998208;28;1094;-75